sensor_id;sensor_type;location;lat;lon;timestamp;pressure;altitude;pressure_sealevel;temperature;humidity
37852;BME280;23691;52.486;4.650;2023-02-10T00:01:08;103519.59;;;5.95;77.59
37852;BME280;23691;52.486;4.650;2023-02-10T00:03:34;103508.81;;;5.98;77.28
37852;BME280;23691;52.486;4.650;2023-02-10T00:06:01;103507.81;;;6.00;76.95
37852;BME280;23691;52.486;4.650;2023-02-10T00:08:27;103507.81;;;6.00;76.61
37852;BME280;23691;52.486;4.650;2023-02-10T00:10:57;103514.06;;;5.99;76.42
37852;BME280;23691;52.486;4.650;2023-02-10T00:13:24;103509.69;;;5.98;76.52
37852;BME280;23691;52.486;4.650;2023-02-10T00:15:50;103513.28;;;5.97;76.57
37852;BME280;23691;52.486;4.650;2023-02-10T00:18:15;103511.47;;;5.98;76.36
37852;BME280;23691;52.486;4.650;2023-02-10T00:20:40;103515.06;;;5.97;76.56
37852;BME280;23691;52.486;4.650;2023-02-10T00:23:06;103511.47;;;5.98;76.53
37852;BME280;23691;52.486;4.650;2023-02-10T00:25:34;103513.28;;;5.97;76.26
37852;BME280;23691;52.486;4.650;2023-02-10T00:28:00;103517.72;;;5.97;76.33
37852;BME280;23691;52.486;4.650;2023-02-10T00:30:25;103529.31;;;5.96;76.31
37852;BME280;23691;52.486;4.650;2023-02-10T00:32:50;103528.50;;;5.94;76.41
37852;BME280;23691;52.486;4.650;2023-02-10T00:35:16;103535.66;;;5.92;76.32
37852;BME280;23691;52.486;4.650;2023-02-10T00:37:41;103530.38;;;5.90;76.41
37852;BME280;23691;52.486;4.650;2023-02-10T00:40:06;103528.88;;;5.85;76.56
37852;BME280;23691;52.486;4.650;2023-02-10T00:42:32;103529.88;;;5.82;76.75
37852;BME280;23691;52.486;4.650;2023-02-10T00:44:57;103527.38;;;5.79;76.69
37852;BME280;23691;52.486;4.650;2023-02-10T00:47:23;103525.56;;;5.79;76.69
37852;BME280;23691;52.486;4.650;2023-02-10T00:49:51;103528.41;;;5.75;76.64
37852;BME280;23691;52.486;4.650;2023-02-10T00:52:16;103532.06;;;5.72;76.79
37852;BME280;23691;52.486;4.650;2023-02-10T00:54:42;103533.88;;;5.72;76.85
37852;BME280;23691;52.486;4.650;2023-02-10T00:57:08;103534.78;;;5.71;76.79
37852;BME280;23691;52.486;4.650;2023-02-10T00:59:33;103536.53;;;5.72;76.93
37852;BME280;23691;52.486;4.650;2023-02-10T01:01:59;103534.78;;;5.71;76.98
37852;BME280;23691;52.486;4.650;2023-02-10T01:04:24;103531.28;;;5.70;76.76
37852;BME280;23691;52.486;4.650;2023-02-10T01:06:49;103523.31;;;5.70;76.87
37852;BME280;23691;52.486;4.650;2023-02-10T01:09:15;103527.75;;;5.70;76.98
37852;BME280;23691;52.486;4.650;2023-02-10T01:11:40;103534.06;;;5.67;77.08
37852;BME280;23691;52.486;4.650;2023-02-10T01:14:06;103538.53;;;5.67;77.24
37852;BME280;23691;52.486;4.650;2023-02-10T01:16:31;103553.53;;;5.68;77.19
37852;BME280;23691;52.486;4.650;2023-02-10T01:18:58;103555.38;;;5.66;77.34
37852;BME280;23691;52.486;4.650;2023-02-10T01:21:24;103547.50;;;5.64;77.32
37852;BME280;23691;52.486;4.650;2023-02-10T01:23:49;103551.16;;;5.62;77.23
37852;BME280;23691;52.486;4.650;2023-02-10T01:26:15;103560.97;;;5.59;77.35
37852;BME280;23691;52.486;4.650;2023-02-10T01:28:42;103568.13;;;5.57;77.57
37852;BME280;23691;52.486;4.650;2023-02-10T01:31:09;103554.81;;;5.59;77.36
37852;BME280;23691;52.486;4.650;2023-02-10T01:33:35;103557.56;;;5.56;77.70
37852;BME280;23691;52.486;4.650;2023-02-10T01:36:09;103554.91;;;5.56;77.79
37852;BME280;23691;52.486;4.650;2023-02-10T01:38:35;103557.56;;;5.56;77.77
37852;BME280;23691;52.486;4.650;2023-02-10T01:41:01;103554.91;;;5.56;77.90
37852;BME280;23691;52.486;4.650;2023-02-10T01:43:26;103552.19;;;5.57;78.00
37852;BME280;23691;52.486;4.650;2023-02-10T01:45:51;103553.84;;;5.60;77.67
37852;BME280;23691;52.486;4.650;2023-02-10T01:48:18;103557.25;;;5.64;78.19
37852;BME280;23691;52.486;4.650;2023-02-10T01:50:48;103557.97;;;5.67;78.02
37852;BME280;23691;52.486;4.650;2023-02-10T01:53:16;103545.50;;;5.69;78.07
37852;BME280;23691;52.486;4.650;2023-02-10T01:55:44;103557.78;;;5.72;78.19
37852;BME280;23691;52.486;4.650;2023-02-10T01:58:13;103550.66;;;5.72;77.85
37852;BME280;23691;52.486;4.650;2023-02-10T02:00:39;103551.66;;;5.70;77.93
37852;BME280;23691;52.486;4.650;2023-02-10T02:03:06;103549.28;;;5.64;78.11
37852;BME280;23691;52.486;4.650;2023-02-10T02:05:36;103555.66;;;5.59;77.90
37852;BME280;23691;52.486;4.650;2023-02-10T02:08:12;103548.75;;;5.55;78.00
37852;BME280;23691;52.486;4.650;2023-02-10T02:13:58;103553.72;;;5.43;78.05
37852;BME280;23691;52.486;4.650;2023-02-10T02:16:47;103559.41;;;5.33;78.06
37852;BME280;23691;52.486;4.650;2023-02-10T02:28:00;103558.31;;;5.17;78.25
37852;BME280;23691;52.486;4.650;2023-02-10T02:33:22;103564.91;;;5.07;78.72
37852;BME280;23691;52.486;4.650;2023-02-10T02:35:58;103564.13;;;5.05;78.76
37852;BME280;23691;52.486;4.650;2023-02-10T02:38:25;103571.16;;;5.06;78.69
37852;BME280;23691;52.486;4.650;2023-02-10T02:40:51;103563.25;;;5.04;79.09
37852;BME280;23691;52.486;4.650;2023-02-10T02:43:16;103565.97;;;5.03;78.80
37852;BME280;23691;52.486;4.650;2023-02-10T02:45:55;103562.38;;;5.04;78.69
37852;BME280;23691;52.486;4.650;2023-02-10T02:48:34;103558.19;;;4.98;78.95
37852;BME280;23691;52.486;4.650;2023-02-10T02:51:13;103559.19;;;4.95;78.99
37852;BME280;23691;52.486;4.650;2023-02-10T02:54:10;103559.38;;;4.91;79.06
37852;BME280;23691;52.486;4.650;2023-02-10T02:56:44;103566.66;;;4.86;79.26
37852;BME280;23691;52.486;4.650;2023-02-10T03:01:49;103560.66;;;4.81;79.12
37852;BME280;23691;52.486;4.650;2023-02-10T03:04:17;103564.44;;;4.75;79.02
37852;BME280;23691;52.486;4.650;2023-02-10T03:06:43;103571.50;;;4.74;79.13
37852;BME280;23691;52.486;4.650;2023-02-10T03:09:09;103564.47;;;4.73;79.05
37852;BME280;23691;52.486;4.650;2023-02-10T03:11:34;103573.34;;;4.72;79.30
37852;BME280;23691;52.486;4.650;2023-02-10T03:14:00;103571.75;;;4.68;79.21
37852;BME280;23691;52.486;4.650;2023-02-10T03:16:25;103579.84;;;4.65;79.43
37852;BME280;23691;52.486;4.650;2023-02-10T03:18:51;103576.38;;;4.63;79.34
37852;BME280;23691;52.486;4.650;2023-02-10T03:21:16;103573.81;;;4.60;79.54
37852;BME280;23691;52.486;4.650;2023-02-10T03:23:42;103576.59;;;4.57;79.59
37852;BME280;23691;52.486;4.650;2023-02-10T03:26:07;103582.84;;;4.56;79.62
37852;BME280;23691;52.486;4.650;2023-02-10T03:28:32;103586.34;;;4.57;79.50
37852;BME280;23691;52.486;4.650;2023-02-10T03:31:02;103571.41;;;4.54;79.56
37852;BME280;23691;52.486;4.650;2023-02-10T03:33:27;103568.75;;;4.54;79.72
37852;BME280;23691;52.486;4.650;2023-02-10T03:35:52;103570.56;;;4.54;79.78
37852;BME280;23691;52.486;4.650;2023-02-10T03:38:18;103565.25;;;4.54;79.72
37852;BME280;23691;52.486;4.650;2023-02-10T03:40:43;103575.69;;;4.58;79.87
37852;BME280;23691;52.486;4.650;2023-02-10T03:43:08;103575.50;;;4.63;79.74
37852;BME280;23691;52.486;4.650;2023-02-10T03:45:34;103580.69;;;4.66;79.84
37852;BME280;23691;52.486;4.650;2023-02-10T03:47:59;103589.50;;;4.66;79.91
37852;BME280;23691;52.486;4.650;2023-02-10T03:50:25;103583.25;;;4.67;80.00
37852;BME280;23691;52.486;4.650;2023-02-10T03:52:51;103582.09;;;4.74;79.99
37852;BME280;23691;52.486;4.650;2023-02-10T03:55:17;103587.19;;;4.81;80.37
37852;BME280;23691;52.486;4.650;2023-02-10T03:57:44;103575.25;;;4.92;80.22
37852;BME280;23691;52.486;4.650;2023-02-10T04:00:11;103569.50;;;5.03;80.82
37852;BME280;23691;52.486;4.650;2023-02-10T04:02:37;103569.97;;;5.13;80.83
37852;BME280;23691;52.486;4.650;2023-02-10T04:05:03;103566.06;;;5.22;80.79
37852;BME280;23691;52.486;4.650;2023-02-10T04:07:30;103568.34;;;5.31;81.18
37852;BME280;23691;52.486;4.650;2023-02-10T04:09:55;103561.00;;;5.37;81.30
37852;BME280;23691;52.486;4.650;2023-02-10T04:12:21;103565.13;;;5.45;81.44
37852;BME280;23691;52.486;4.650;2023-02-10T04:14:46;103565.84;;;5.48;81.50
37852;BME280;23691;52.486;4.650;2023-02-10T04:17:12;103567.47;;;5.52;81.64
37852;BME280;23691;52.486;4.650;2023-02-10T04:19:37;103565.63;;;5.54;81.44
37852;BME280;23691;52.486;4.650;2023-02-10T04:22:02;103568.19;;;5.56;81.57
37852;BME280;23691;52.486;4.650;2023-02-10T04:24:28;103559.31;;;5.57;81.76
37852;BME280;23691;52.486;4.650;2023-02-10T04:26:53;103559.22;;;5.58;81.66
37852;BME280;23691;52.486;4.650;2023-02-10T04:29:18;103568.06;;;5.59;81.82
37852;BME280;23691;52.486;4.650;2023-02-10T04:31:44;103566.13;;;5.63;81.88
37852;BME280;23691;52.486;4.650;2023-02-10T04:34:09;103566.88;;;5.66;82.02
37852;BME280;23691;52.486;4.650;2023-02-10T04:36:35;103577.38;;;5.69;82.01
37852;BME280;23691;52.486;4.650;2023-02-10T04:39:00;103572.13;;;5.68;81.91
37852;BME280;23691;52.486;4.650;2023-02-10T04:41:28;103576.91;;;5.59;81.84
37852;BME280;23691;52.486;4.650;2023-02-10T04:43:53;103576.47;;;5.48;81.69
37852;BME280;23691;52.486;4.650;2023-02-10T04:46:19;103581.97;;;5.44;81.55
37852;BME280;23691;52.486;4.650;2023-02-10T04:48:44;103575.41;;;5.32;81.84
37852;BME280;23691;52.486;4.650;2023-02-10T04:51:11;103568.72;;;5.22;81.65
37852;BME280;23691;52.486;4.650;2023-02-10T04:53:38;103561.97;;;5.14;81.78
37852;BME280;23691;52.486;4.650;2023-02-10T04:56:05;103561.25;;;5.09;81.58
37852;BME280;23691;52.486;4.650;2023-02-10T04:58:31;103566.69;;;5.06;81.42
37852;BME280;23691;52.486;4.650;2023-02-10T05:00:56;103566.84;;;5.03;81.04
37852;BME280;23691;52.486;4.650;2023-02-10T05:03:22;103561.66;;;5.00;81.23
37852;BME280;23691;52.486;4.650;2023-02-10T05:05:48;103560.91;;;4.97;81.17
37852;BME280;23691;52.486;4.650;2023-02-10T05:08:13;103562.84;;;4.93;81.07
37852;BME280;23691;52.486;4.650;2023-02-10T05:10:39;103553.22;;;4.90;80.96
37852;BME280;23691;52.486;4.650;2023-02-10T05:13:05;103551.59;;;4.86;80.99
37852;BME280;23691;52.486;4.650;2023-02-10T05:15:30;103552.84;;;4.78;80.90
37852;BME280;23691;52.486;4.650;2023-02-10T05:17:56;103564.53;;;4.72;80.78
37852;BME280;23691;52.486;4.650;2023-02-10T05:20:21;103559.53;;;4.64;81.12
37852;BME280;23691;52.486;4.650;2023-02-10T05:22:46;103566.66;;;4.62;80.95
37852;BME280;23691;52.486;4.650;2023-02-10T05:25:12;103559.66;;;4.61;80.66
37852;BME280;23691;52.486;4.650;2023-02-10T05:27:37;103557.03;;;4.60;80.77
37852;BME280;23691;52.486;4.650;2023-02-10T05:30:04;103556.19;;;4.59;80.71
37852;BME280;23691;52.486;4.650;2023-02-10T05:32:30;103552.72;;;4.57;80.46
37852;BME280;23691;52.486;4.650;2023-02-10T05:34:55;103551.88;;;4.57;80.55
37852;BME280;23691;52.486;4.650;2023-02-10T05:37:20;103550.25;;;4.52;80.77
37852;BME280;23691;52.486;4.650;2023-02-10T05:39:46;103563.72;;;4.48;80.43
37852;BME280;23691;52.486;4.650;2023-02-10T05:42:11;103560.28;;;4.44;80.73
37852;BME280;23691;52.486;4.650;2023-02-10T05:44:37;103562.22;;;4.41;80.71
37852;BME280;23691;52.486;4.650;2023-02-10T05:47:02;103562.38;;;4.36;80.78
37852;BME280;23691;52.486;4.650;2023-02-10T05:49:27;103566.81;;;4.36;80.52
37852;BME280;23691;52.486;4.650;2023-02-10T05:51:53;103567.72;;;4.35;80.59
37852;BME280;23691;52.486;4.650;2023-02-10T05:54:18;103567.59;;;4.38;80.49
37852;BME280;23691;52.486;4.650;2023-02-10T05:56:44;103556.09;;;4.39;80.62
37852;BME280;23691;52.486;4.650;2023-02-10T05:59:11;103563.19;;;4.38;80.82
37852;BME280;23691;52.486;4.650;2023-02-10T06:01:39;103549.97;;;4.37;80.50
37852;BME280;23691;52.486;4.650;2023-02-10T06:04:05;103581.03;;;4.33;80.76
37852;BME280;23691;52.486;4.650;2023-02-10T06:06:30;103580.28;;;4.29;80.79
37852;BME280;23691;52.486;4.650;2023-02-10T06:08:59;103587.41;;;4.27;80.58
37852;BME280;23691;52.486;4.650;2023-02-10T06:11:25;103586.59;;;4.25;81.02
37852;BME280;23691;52.486;4.650;2023-02-10T06:13:50;103580.41;;;4.26;81.21
37852;BME280;23691;52.486;4.650;2023-02-10T06:16:16;103579.44;;;4.29;81.17
37852;BME280;23691;52.486;4.650;2023-02-10T06:18:41;103582.13;;;4.27;81.29
37852;BME280;23691;52.486;4.650;2023-02-10T06:21:08;103595.38;;;4.27;81.21
37852;BME280;23691;52.486;4.650;2023-02-10T06:23:34;103593.59;;;4.28;81.53
37852;BME280;23691;52.486;4.650;2023-02-10T06:25:59;103597.13;;;4.28;81.31
37852;BME280;23691;52.486;4.650;2023-02-10T06:28:25;103588.25;;;4.29;81.04
37852;BME280;23691;52.486;4.650;2023-02-10T06:30:51;103585.59;;;4.29;81.18
37852;BME280;23691;52.486;4.650;2023-02-10T06:33:17;103578.50;;;4.30;81.41
37852;BME280;23691;52.486;4.650;2023-02-10T06:35:42;103567.84;;;4.32;81.70
37852;BME280;23691;52.486;4.650;2023-02-10T06:38:08;103569.47;;;4.36;81.71
37852;BME280;23691;52.486;4.650;2023-02-10T06:40:33;103574.69;;;4.37;81.57
37852;BME280;23691;52.486;4.650;2023-02-10T06:42:59;103562.28;;;4.38;81.94
37852;BME280;23691;52.486;4.650;2023-02-10T06:45:26;103579.94;;;4.39;81.85
37852;BME280;23691;52.486;4.650;2023-02-10T06:47:52;103581.66;;;4.40;82.19
37852;BME280;23691;52.486;4.650;2023-02-10T06:50:17;103584.28;;;4.41;82.14
37852;BME280;23691;52.486;4.650;2023-02-10T06:52:43;103592.97;;;4.45;82.11
37852;BME280;23691;52.486;4.650;2023-02-10T06:55:08;103592.97;;;4.45;81.97
37852;BME280;23691;52.486;4.650;2023-02-10T06:57:37;103591.97;;;4.47;82.34
37852;BME280;23691;52.486;4.650;2023-02-10T07:00:05;103584.91;;;4.48;82.49
37852;BME280;23691;52.486;4.650;2023-02-10T07:02:33;103591.06;;;4.48;82.36
37852;BME280;23691;52.486;4.650;2023-02-10T07:04:58;103605.16;;;4.50;82.65
37852;BME280;23691;52.486;4.650;2023-02-10T07:07:23;103606.75;;;4.55;82.47
37852;BME280;23691;52.486;4.650;2023-02-10T07:09:49;103606.75;;;4.55;82.60
37852;BME280;23691;52.486;4.650;2023-02-10T07:12:14;103607.56;;;4.57;82.68
37852;BME280;23691;52.486;4.650;2023-02-10T07:14:39;103602.97;;;4.60;82.42
37852;BME280;23691;52.486;4.650;2023-02-10T07:17:05;103595.03;;;4.60;82.60
37852;BME280;23691;52.486;4.650;2023-02-10T07:19:30;103605.63;;;4.60;82.62
37852;BME280;23691;52.486;4.650;2023-02-10T07:21:57;103623.28;;;4.61;83.01
37852;BME280;23691;52.486;4.650;2023-02-10T07:24:22;103622.44;;;4.61;82.90
37852;BME280;23691;52.486;4.650;2023-02-10T07:26:47;103616.19;;;4.62;82.65
37852;BME280;23691;52.486;4.650;2023-02-10T07:29:13;103599.38;;;4.63;82.72
37852;BME280;23691;52.486;4.650;2023-02-10T07:31:38;103605.53;;;4.63;82.70
37852;BME280;23691;52.486;4.650;2023-02-10T07:34:04;103606.41;;;4.64;82.77
37852;BME280;23691;52.486;4.650;2023-02-10T07:36:29;103608.13;;;4.65;83.05
37852;BME280;23691;52.486;4.650;2023-02-10T07:38:55;103612.56;;;4.64;82.89
37852;BME280;23691;52.486;4.650;2023-02-10T07:41:20;103615.16;;;4.66;83.25
37852;BME280;23691;52.486;4.650;2023-02-10T07:43:45;103619.66;;;4.64;82.97
37852;BME280;23691;52.486;4.650;2023-02-10T07:46:11;103618.69;;;4.66;83.18
37852;BME280;23691;52.486;4.650;2023-02-10T07:48:36;103627.44;;;4.68;83.09
37852;BME280;23691;52.486;4.650;2023-02-10T07:51:02;103628.13;;;4.73;82.83
37852;BME280;23691;52.486;4.650;2023-02-10T07:53:27;103618.25;;;4.77;82.92
37852;BME280;23691;52.486;4.650;2023-02-10T07:55:53;103625.22;;;4.80;83.04
37852;BME280;23691;52.486;4.650;2023-02-10T07:58:18;103623.34;;;4.83;83.16
37852;BME280;23691;52.486;4.650;2023-02-10T08:00:44;103628.53;;;4.86;83.22
37852;BME280;23691;52.486;4.650;2023-02-10T08:03:13;103624.84;;;4.90;83.07
37852;BME280;23691;52.486;4.650;2023-02-10T08:05:39;103629.06;;;4.94;83.03
37852;BME280;23691;52.486;4.650;2023-02-10T08:08:04;103627.25;;;4.97;83.22
37852;BME280;23691;52.486;4.650;2023-02-10T08:10:32;103625.34;;;5.00;83.09
37852;BME280;23691;52.486;4.650;2023-02-10T08:12:57;103625.22;;;5.03;83.39
37852;BME280;23691;52.486;4.650;2023-02-10T08:15:23;103623.25;;;5.08;83.62
37852;BME280;23691;52.486;4.650;2023-02-10T08:17:50;103616.81;;;5.14;83.40
37852;BME280;23691;52.486;4.650;2023-02-10T08:20:15;103622.81;;;5.19;83.60
37852;BME280;23691;52.486;4.650;2023-02-10T08:22:41;103624.25;;;5.28;83.37
37852;BME280;23691;52.486;4.650;2023-02-10T08:25:06;103629.38;;;5.32;83.81
37852;BME280;23691;52.486;4.650;2023-02-10T08:27:32;103630.00;;;5.39;83.86
37852;BME280;23691;52.486;4.650;2023-02-10T08:29:57;103617.31;;;5.46;84.07
37852;BME280;23691;52.486;4.650;2023-02-10T08:32:23;103627.69;;;5.52;83.96
37852;BME280;23691;52.486;4.650;2023-02-10T08:34:49;103623.84;;;5.59;84.08
37852;BME280;23691;52.486;4.650;2023-02-10T08:37:15;103630.69;;;5.65;84.28
37852;BME280;23691;52.486;4.650;2023-02-10T08:39:41;103634.88;;;5.70;84.18
37852;BME280;23691;52.486;4.650;2023-02-10T08:42:06;103650.47;;;5.78;84.19
37852;BME280;23691;52.486;4.650;2023-02-10T08:44:31;103644.94;;;5.84;84.29
37852;BME280;23691;52.486;4.650;2023-02-10T08:46:57;103652.56;;;5.92;84.17
37852;BME280;23691;52.486;4.650;2023-02-10T08:49:22;103634.81;;;5.94;84.16
37852;BME280;23691;52.486;4.650;2023-02-10T08:51:51;103633.66;;;5.99;84.08
37852;BME280;23691;52.486;4.650;2023-02-10T08:54:16;103622.78;;;6.06;84.11
37852;BME280;23691;52.486;4.650;2023-02-10T08:56:41;103631.41;;;6.11;84.17
37852;BME280;23691;52.486;4.650;2023-02-10T08:59:07;103634.84;;;6.13;84.13
37852;BME280;23691;52.486;4.650;2023-02-10T09:01:33;103635.66;;;6.15;84.19
37852;BME280;23691;52.486;4.650;2023-02-10T09:03:58;103633.75;;;6.18;84.23
37852;BME280;23691;52.486;4.650;2023-02-10T09:06:36;103638.91;;;6.21;84.29
37852;BME280;23691;52.486;4.650;2023-02-10T09:09:14;103631.59;;;6.27;84.44
37852;BME280;23691;52.486;4.650;2023-02-10T09:11:41;103640.38;;;6.29;84.12
37852;BME280;23691;52.486;4.650;2023-02-10T09:14:07;103634.75;;;6.35;84.17
37852;BME280;23691;52.486;4.650;2023-02-10T09:16:33;103629.25;;;6.39;84.14
37852;BME280;23691;52.486;4.650;2023-02-10T09:18:59;103641.53;;;6.42;84.19
37852;BME280;23691;52.486;4.650;2023-02-10T09:21:25;103634.16;;;6.49;84.31
37852;BME280;23691;52.486;4.650;2023-02-10T09:23:51;103633.88;;;6.55;83.94
37852;BME280;23691;52.486;4.650;2023-02-10T09:26:16;103625.56;;;6.62;83.96
37852;BME280;23691;52.486;4.650;2023-02-10T09:28:42;103632.31;;;6.70;83.95
37852;BME280;23691;52.486;4.650;2023-02-10T09:31:08;103622.16;;;6.78;83.67
37852;BME280;23691;52.486;4.650;2023-02-10T09:33:35;103622.75;;;6.84;83.71
37852;BME280;23691;52.486;4.650;2023-02-10T09:36:04;103634.84;;;6.92;83.34
37852;BME280;23691;52.486;4.650;2023-02-10T09:38:30;103621.38;;;6.95;83.34
37852;BME280;23691;52.486;4.650;2023-02-10T09:41:24;103628.16;;;7.02;82.99
37852;BME280;23691;52.486;4.650;2023-02-10T09:52:32;103615.28;;;7.29;82.18
37852;BME280;23691;52.486;4.650;2023-02-10T09:55:01;103620.31;;;7.35;81.53
37852;BME280;23691;52.486;4.650;2023-02-10T09:57:32;103611.94;;;7.43;81.36
37852;BME280;23691;52.486;4.650;2023-02-10T10:00:02;103612.56;;;7.48;80.46
37852;BME280;23691;52.486;4.650;2023-02-10T10:02:35;103612.44;;;7.51;79.93
37852;BME280;23691;52.486;4.650;2023-02-10T10:05:33;103610.16;;;7.61;79.75
37852;BME280;23691;52.486;4.650;2023-02-10T10:07:56;103617.84;;;7.67;79.30
37852;BME280;23691;52.486;4.650;2023-02-10T10:10:30;103622.72;;;7.76;78.89
37852;BME280;23691;52.486;4.650;2023-02-10T10:12:57;103621.34;;;7.85;78.69
37852;BME280;23691;52.486;4.650;2023-02-10T10:15:29;103625.38;;;7.93;78.00
37852;BME280;23691;52.486;4.650;2023-02-10T10:18:31;103629.50;;;7.99;77.32
37852;BME280;23691;52.486;4.650;2023-02-10T10:22:03;103624.28;;;7.98;76.87
37852;BME280;23691;52.486;4.650;2023-02-10T10:27:11;103638.47;;;7.98;75.49
37852;BME280;23691;52.486;4.650;2023-02-10T10:29:55;103630.47;;;7.98;75.64
37852;BME280;23691;52.486;4.650;2023-02-10T10:32:43;103646.06;;;8.06;75.55
37852;BME280;23691;52.486;4.650;2023-02-10T10:35:15;103646.06;;;8.06;75.46
37852;BME280;23691;52.486;4.650;2023-02-10T10:37:42;103646.97;;;8.05;75.59
37852;BME280;23691;52.486;4.650;2023-02-10T10:40:15;103640.91;;;8.03;75.68
37852;BME280;23691;52.486;4.650;2023-02-10T10:42:52;103645.91;;;8.09;75.68
37852;BME280;23691;52.486;4.650;2023-02-10T10:45:34;103648.16;;;8.16;75.95
37852;BME280;23691;52.486;4.650;2023-02-10T10:48:06;103640.63;;;8.25;75.73
37852;BME280;23691;52.486;4.650;2023-02-10T10:50:33;103644.59;;;8.33;75.60
37852;BME280;23691;52.486;4.650;2023-02-10T10:53:03;103656.00;;;8.37;75.32
37852;BME280;23691;52.486;4.650;2023-02-10T10:55:46;103636.44;;;8.36;75.22
37852;BME280;23691;52.486;4.650;2023-02-10T10:58:27;103627.19;;;8.44;75.16
37852;BME280;23691;52.486;4.650;2023-02-10T11:00:56;103625.75;;;8.54;75.19
37852;BME280;23691;52.486;4.650;2023-02-10T11:03:22;103625.59;;;8.57;74.92
37852;BME280;23691;52.486;4.650;2023-02-10T11:06:01;103620.94;;;8.60;74.89
37852;BME280;23691;52.486;4.650;2023-02-10T11:08:33;103616.22;;;8.66;74.71
37852;BME280;23691;52.486;4.650;2023-02-10T11:11:02;103607.28;;;8.67;74.37
37852;BME280;23691;52.486;4.650;2023-02-10T11:13:31;103597.22;;;8.72;74.27
37852;BME280;23691;52.486;4.650;2023-02-10T11:16:10;103596.06;;;8.76;73.77
37852;BME280;23691;52.486;4.650;2023-02-10T11:18:37;103601.69;;;8.87;73.85
37852;BME280;23691;52.486;4.650;2023-02-10T11:21:09;103607.97;;;9.02;73.83
37852;BME280;23691;52.486;4.650;2023-02-10T11:23:56;103606.22;;;9.17;73.46
37852;BME280;23691;52.486;4.650;2023-02-10T11:26:23;103601.41;;;9.23;73.19
37852;BME280;23691;52.486;4.650;2023-02-10T11:28:50;103605.59;;;9.28;73.13
37852;BME280;23691;52.486;4.650;2023-02-10T11:31:25;103596.66;;;9.29;72.92
37852;BME280;23691;52.486;4.650;2023-02-10T11:34:28;103589.75;;;9.24;72.48
37852;BME280;23691;52.486;4.650;2023-02-10T11:36:56;103600.03;;;9.16;72.94
37852;BME280;23691;52.486;4.650;2023-02-10T11:39:27;103603.47;;;9.18;72.92
37852;BME280;23691;52.486;4.650;2023-02-10T11:41:54;103596.13;;;9.22;72.70
37852;BME280;23691;52.486;4.650;2023-02-10T11:44:30;103596.38;;;9.33;72.68
37852;BME280;23691;52.486;4.650;2023-02-10T11:47:02;103596.13;;;9.38;72.63
37852;BME280;23691;52.486;4.650;2023-02-10T11:49:30;103588.69;;;9.43;72.21
37852;BME280;23691;52.486;4.650;2023-02-10T11:52:00;103604.03;;;9.39;72.05
37852;BME280;23691;52.486;4.650;2023-02-10T11:54:27;103615.25;;;9.46;71.60
37852;BME280;23691;52.486;4.650;2023-02-10T12:05:47;103610.66;;;9.48;70.28
37852;BME280;23691;52.486;4.650;2023-02-10T12:08:24;103611.97;;;9.41;69.93
37852;BME280;23691;52.486;4.650;2023-02-10T12:11:19;103609.19;;;9.42;69.81
37852;BME280;23691;52.486;4.650;2023-02-10T12:13:58;103603.38;;;9.36;69.58
37852;BME280;23691;52.486;4.650;2023-02-10T12:19:03;103601.47;;;9.38;69.47
37852;BME280;23691;52.486;4.650;2023-02-10T12:24:20;103598.81;;;9.52;69.10
37852;BME280;23691;52.486;4.650;2023-02-10T12:26:54;103591.31;;;9.59;69.18
37852;BME280;23691;52.486;4.650;2023-02-10T12:35:35;103575.06;;;9.92;69.04
37852;BME280;23691;52.486;4.650;2023-02-10T12:38:27;103570.34;;;9.81;69.34
37852;BME280;23691;52.486;4.650;2023-02-10T12:41:23;103555.16;;;9.67;69.68
37852;BME280;23691;52.486;4.650;2023-02-10T12:44:20;103555.72;;;9.58;69.92
37852;BME280;23691;52.486;4.650;2023-02-10T12:47:00;103545.78;;;9.60;70.02
37852;BME280;23691;52.486;4.650;2023-02-10T12:58:16;103528.38;;;9.39;71.10
37852;BME280;23691;52.486;4.650;2023-02-10T13:00:47;103513.38;;;9.36;71.46
37852;BME280;23691;52.486;4.650;2023-02-10T13:03:25;103523.88;;;9.39;71.48
37852;BME280;23691;52.486;4.650;2023-02-10T13:05:57;103525.63;;;9.40;71.72
37852;BME280;23691;52.486;4.650;2023-02-10T13:08:30;103526.00;;;9.49;71.66
37852;BME280;23691;52.486;4.650;2023-02-10T13:11:33;103525.22;;;9.46;71.61
37852;BME280;23691;52.486;4.650;2023-02-10T13:14:05;103521.78;;;9.44;72.11
37852;BME280;23691;52.486;4.650;2023-02-10T13:16:33;103527.72;;;9.50;72.04
37852;BME280;23691;52.486;4.650;2023-02-10T13:21:29;103526.03;;;9.63;71.80
37852;BME280;23691;52.486;4.650;2023-02-10T13:24:28;103524.69;;;9.56;71.62
37852;BME280;23691;52.486;4.650;2023-02-10T13:27:07;103510.63;;;9.52;72.01
37852;BME280;23691;52.486;4.650;2023-02-10T13:32:42;103501.22;;;9.61;71.99
37852;BME280;23691;52.486;4.650;2023-02-10T13:35:20;103489.16;;;9.54;72.09
37852;BME280;23691;52.486;4.650;2023-02-10T13:37:57;103489.09;;;9.55;72.10
37852;BME280;23691;52.486;4.650;2023-02-10T13:40:32;103481.53;;;9.62;72.18
37852;BME280;23691;52.486;4.650;2023-02-10T13:43:00;103474.09;;;9.67;72.16
37852;BME280;23691;52.486;4.650;2023-02-10T13:45:30;103475.53;;;9.73;72.17
37852;BME280;23691;52.486;4.650;2023-02-10T13:48:00;103473.72;;;9.73;71.98
37852;BME280;23691;52.486;4.650;2023-02-10T13:51:11;103452.53;;;9.70;72.11
37852;BME280;23691;52.486;4.650;2023-02-10T14:01:42;103462.34;;;9.41;72.74
37852;BME280;23691;52.486;4.650;2023-02-10T14:06:48;103478.06;;;9.31;73.04
37852;BME280;23691;52.486;4.650;2023-02-10T14:11:55;103480.69;;;9.17;72.93
37852;BME280;23691;52.486;4.650;2023-02-10T14:14:26;103492.16;;;9.19;73.11
37852;BME280;23691;52.486;4.650;2023-02-10T14:16:52;103505.41;;;9.20;73.16
37852;BME280;23691;52.486;4.650;2023-02-10T14:19:32;103495.47;;;9.22;73.51
37852;BME280;23691;52.486;4.650;2023-02-10T14:21:59;103493.59;;;9.24;73.16
37852;BME280;23691;52.486;4.650;2023-02-10T14:24:31;103485.69;;;9.23;73.20
37852;BME280;23691;52.486;4.650;2023-02-10T14:27:01;103476.19;;;9.17;73.23